createdAt,value
2019-03-29T00:00:13.746Z,62.26
2019-03-29T00:02:43.287Z,62.49
2019-03-29T00:05:12.624Z,62.67
2019-03-29T00:07:42.259Z,62.65
2019-03-29T00:10:11.862Z,62.69
2019-03-29T00:12:41.252Z,62.89
2019-03-29T00:15:10.613Z,63.44
2019-03-29T00:17:39.972Z,63.30
2019-03-29T00:20:10.977Z,62.79
2019-03-29T00:22:40.324Z,62.74
2019-03-29T00:25:09.687Z,62.73
2019-03-29T00:27:39.027Z,62.58
2019-03-29T00:30:08.384Z,62.99
2019-03-29T00:32:37.758Z,63.30
2019-03-29T00:35:08.366Z,63.10
2019-03-29T00:37:37.738Z,63.45
2019-03-29T00:40:07.849Z,63.33
2019-03-29T00:42:37.203Z,63.60
2019-03-29T00:45:08.410Z,63.42
2019-03-29T00:47:37.760Z,63.50
2019-03-29T00:50:10.154Z,63.31
2019-03-29T00:52:39.494Z,63.03
2019-03-29T00:55:08.848Z,63.18
2019-03-29T00:57:38.211Z,62.82
2019-03-29T01:00:08.974Z,63.01
2019-03-29T01:02:38.375Z,62.89
2019-03-29T01:05:07.796Z,63.34
2019-03-29T01:07:37.130Z,63.18
2019-03-29T01:10:07.996Z,63.44
2019-03-29T01:12:37.353Z,63.29
2019-03-29T01:15:10.536Z,63.18
2019-03-29T01:17:39.878Z,63.29
2019-03-29T01:20:09.799Z,63.18
2019-03-29T01:22:39.179Z,63.19
2019-03-29T01:25:08.680Z,63.19
2019-03-29T01:27:38.007Z,63.38
2019-03-29T01:30:07.866Z,63.44
2019-03-29T01:32:37.206Z,63.37
2019-03-29T01:35:09.063Z,63.30
2019-03-29T01:37:37.997Z,63.37
2019-03-29T01:40:09.012Z,63.46
2019-03-29T01:42:38.437Z,63.40
2019-03-29T01:45:08.557Z,63.77
2019-03-29T01:47:37.901Z,63.67
2019-03-29T01:50:08.135Z,63.79
2019-03-29T01:52:37.826Z,63.69
2019-03-29T01:55:07.742Z,63.82
2019-03-29T01:57:37.088Z,63.75
2019-03-29T02:00:06.718Z,63.76
2019-03-29T02:02:36.141Z,63.79
2019-03-29T02:05:07.523Z,63.84
2019-03-29T02:07:38.020Z,63.79
2019-03-29T02:10:09.521Z,63.83
2019-03-29T02:12:38.886Z,63.78
2019-03-29T02:15:08.682Z,63.93
2019-03-29T02:17:38.455Z,63.72
2019-03-29T02:20:07.981Z,63.80
2019-03-29T02:22:37.391Z,63.86
2019-03-29T02:25:08.413Z,63.76
2019-03-29T02:27:37.770Z,63.63
2019-03-29T02:30:07.643Z,63.65
2019-03-29T02:32:37.005Z,63.62
2019-03-29T02:35:06.592Z,63.74
2019-03-29T02:37:35.954Z,63.50
2019-03-29T02:40:06.834Z,63.50
2019-03-29T02:42:36.202Z,63.88
2019-03-29T02:45:06.487Z,63.98
2019-03-29T02:47:35.843Z,64.26
2019-03-29T02:50:08.556Z,64.13
2019-03-29T02:52:37.837Z,64.28
2019-03-29T02:55:07.977Z,64.69
2019-03-29T02:57:37.414Z,64.65
2019-03-29T03:00:09.107Z,64.40
2019-03-29T03:02:38.535Z,64.23
2019-03-29T03:05:09.681Z,64.01
2019-03-29T03:07:39.094Z,64.53
2019-03-29T03:10:12.105Z,64.70
2019-03-29T03:12:41.425Z,64.57
2019-03-29T03:15:10.953Z,64.93
2019-03-29T03:17:40.287Z,64.60
2019-03-29T03:20:15.403Z,64.67
2019-03-29T03:22:45.272Z,64.51
2019-03-29T03:25:14.625Z,64.35
2019-03-29T03:27:43.991Z,64.11
2019-03-29T03:30:13.420Z,64.10
2019-03-29T03:32:42.867Z,64.26
2019-03-29T03:35:13.810Z,64.45
2019-03-29T03:37:43.163Z,64.43
2019-03-29T03:40:12.553Z,64.52
2019-03-29T03:42:41.883Z,64.80
2019-03-29T03:45:11.222Z,64.73
2019-03-29T03:47:40.819Z,64.90
2019-03-29T03:50:39.889Z,64.78
2019-03-29T03:53:10.164Z,64.96
2019-03-29T03:55:40.017Z,65.23
2019-03-29T03:58:10.366Z,65.36
2019-03-29T04:00:56.115Z,65.42
2019-03-29T04:03:26.083Z,65.75
2019-03-29T04:05:55.518Z,66.32
2019-03-29T04:08:25.242Z,66.23
2019-03-29T04:10:54.579Z,66.49
2019-03-29T04:13:23.961Z,66.22
2019-03-29T04:15:53.319Z,66.17
2019-03-29T04:18:22.692Z,66.07
2019-03-29T04:20:52.033Z,66.06
2019-03-29T04:23:21.397Z,66.02
2019-03-29T04:25:50.766Z,65.75
2019-03-29T04:28:20.112Z,65.74
2019-03-29T04:30:49.496Z,65.83
2019-03-29T04:33:18.839Z,65.83
2019-03-29T04:35:48.187Z,65.84
2019-03-29T04:38:17.590Z,65.78
2019-03-29T04:40:46.919Z,65.77
2019-03-29T04:43:16.285Z,65.76
2019-03-29T04:45:45.703Z,65.62
2019-03-29T04:48:15.035Z,66.22
2019-03-29T04:50:44.400Z,66.11
2019-03-29T04:53:13.814Z,65.99
2019-03-29T04:55:43.203Z,66.19
2019-03-29T04:58:12.547Z,66.12
2019-03-29T05:00:41.950Z,66.17
2019-03-29T05:03:12.088Z,66.24
2019-03-29T05:05:41.432Z,66.27
2019-03-29T05:08:10.811Z,66.36
2019-03-29T05:10:40.145Z,66.40
2019-03-29T05:13:09.492Z,66.38
2019-03-29T05:15:38.936Z,66.41
2019-03-29T05:18:08.288Z,66.56
2019-03-29T05:20:37.662Z,66.51
2019-03-29T05:23:07.090Z,66.59
2019-03-29T05:25:36.422Z,66.54
2019-03-29T05:28:06.170Z,66.41
2019-03-29T05:30:35.510Z,66.45
2019-03-29T05:33:04.895Z,66.45
2019-03-29T05:35:34.244Z,66.74
2019-03-29T05:38:03.597Z,67.01
2019-03-29T05:40:35.148Z,67.06
2019-03-29T05:43:04.043Z,67.04
2019-03-29T05:45:33.389Z,66.75
2019-03-29T05:48:02.741Z,66.88
2019-03-29T05:50:32.195Z,66.78
2019-03-29T05:53:01.556Z,66.87
2019-03-29T05:55:32.862Z,66.81
2019-03-29T05:58:01.990Z,66.59
2019-03-29T06:00:31.409Z,66.48
2019-03-29T06:03:00.777Z,66.42
2019-03-29T06:05:30.128Z,66.47
2019-03-29T06:07:59.468Z,66.41
2019-03-29T06:10:28.842Z,66.49
2019-03-29T06:12:58.653Z,66.29
2019-03-29T06:15:28.019Z,66.21
2019-03-29T06:17:57.372Z,66.30
2019-03-29T06:20:26.804Z,66.11
2019-03-29T06:22:56.161Z,66.28
2019-03-29T06:25:25.529Z,66.25
2019-03-29T06:27:54.911Z,66.18
2019-03-29T06:30:30.707Z,66.21
2019-03-29T06:33:00.084Z,65.78
2019-03-29T06:35:32.552Z,66.28
2019-03-29T06:38:02.837Z,65.52
2019-03-29T06:40:32.210Z,64.95
2019-03-29T06:43:01.556Z,63.41
2019-03-29T06:45:30.917Z,62.77
2019-03-29T06:48:00.273Z,62.77
2019-03-29T06:50:29.643Z,62.12
2019-03-29T06:52:59.039Z,61.31
2019-03-29T06:55:28.472Z,60.76
2019-03-29T06:57:57.858Z,60.26
2019-03-29T07:00:27.236Z,59.88
2019-03-29T07:02:56.577Z,59.78
2019-03-29T07:05:25.936Z,59.92
2019-03-29T07:07:55.500Z,60.07
2019-03-29T07:10:24.946Z,60.28
2019-03-29T07:12:56.355Z,59.66
2019-03-29T07:15:25.377Z,59.93
2019-03-29T07:17:54.747Z,59.53
2019-03-29T07:20:24.085Z,58.59
2019-03-29T07:22:53.480Z,58.25
2019-03-29T07:25:22.824Z,58.07
2019-03-29T07:27:52.594Z,57.63
2019-03-29T07:30:22.691Z,56.94
2019-03-29T07:32:52.060Z,56.77
2019-03-29T07:35:23.085Z,55.95
2019-03-29T07:37:52.461Z,55.86
2019-03-29T07:40:21.796Z,55.51
2019-03-29T07:42:51.161Z,55.45
2019-03-29T07:45:20.503Z,55.14
2019-03-29T07:47:49.893Z,55.55
2019-03-29T07:50:19.374Z,56.36
2019-03-29T07:52:48.782Z,56.35
2019-03-29T07:55:18.143Z,56.05
2019-03-29T07:57:47.491Z,55.80
2019-03-29T08:00:20.207Z,55.80
2019-03-29T08:02:48.032Z,55.46
2019-03-29T08:05:18.104Z,55.07
2019-03-29T08:07:47.753Z,54.71
2019-03-29T08:10:25.735Z,55.27
2019-03-29T08:12:49.238Z,55.56
2019-03-29T08:15:19.047Z,55.68
2019-03-29T08:17:48.431Z,55.19
2019-03-29T08:20:40.353Z,55.10
2019-03-29T08:22:48.897Z,55.15
2019-03-29T08:25:18.261Z,54.75
2019-03-29T08:27:47.640Z,54.92
2019-03-29T08:30:17.047Z,54.53
2019-03-29T08:32:46.399Z,54.84
2019-03-29T08:35:15.844Z,54.92
2019-03-29T08:37:45.191Z,54.58
2019-03-29T08:40:14.545Z,54.34
2019-03-29T08:42:43.987Z,54.74
2019-03-29T08:45:13.328Z,54.67
2019-03-29T08:47:42.701Z,54.36
2019-03-29T08:50:12.124Z,54.26
2019-03-29T08:52:41.488Z,54.59
2019-03-29T08:55:10.855Z,54.05
2019-03-29T08:57:40.204Z,53.74
2019-03-29T09:00:09.611Z,53.31
2019-03-29T09:02:38.979Z,52.87
2019-03-29T09:05:08.316Z,52.43
2019-03-29T09:07:44.473Z,51.60
2019-03-29T09:10:19.413Z,51.61
2019-03-29T09:12:49.151Z,51.71
2019-03-29T09:15:18.862Z,50.58
2019-03-29T09:17:48.203Z,50.51
2019-03-29T09:20:17.587Z,50.30
2019-03-29T09:22:46.940Z,50.51
2019-03-29T09:25:16.315Z,49.42
2019-03-29T09:27:45.674Z,49.60
2019-03-29T09:30:15.021Z,48.73
2019-03-29T09:32:44.465Z,48.56
2019-03-29T09:35:13.816Z,48.70
2019-03-29T09:37:43.221Z,47.82
2019-03-29T09:40:14.097Z,47.97
2019-03-29T09:42:43.789Z,47.29
2019-03-29T09:45:13.159Z,47.08
2019-03-29T09:47:42.493Z,47.40
2019-03-29T09:50:11.872Z,47.04
2019-03-29T09:52:41.230Z,46.86
2019-03-29T09:55:10.582Z,46.33
2019-03-29T09:57:39.941Z,46.22
2019-03-29T10:00:19.074Z,44.73
2019-03-29T10:02:40.841Z,45.04
2019-03-29T10:05:10.185Z,44.72
2019-03-29T10:07:39.544Z,44.70
2019-03-29T10:10:08.927Z,44.15
2019-03-29T10:12:43.838Z,44.15
2019-03-29T10:15:11.348Z,44.49
2019-03-29T10:17:40.699Z,43.56
2019-03-29T10:20:10.055Z,43.76
2019-03-29T10:22:39.418Z,43.10
2019-03-29T10:25:19.312Z,43.18
2019-03-29T10:27:40.430Z,42.97
2019-03-29T10:30:10.070Z,42.28
2019-03-29T10:32:39.428Z,41.96
2019-03-29T10:35:08.802Z,41.72
2019-03-29T10:37:38.152Z,41.45
2019-03-29T10:40:07.884Z,42.09
2019-03-29T10:42:39.966Z,42.16
2019-03-29T10:45:08.359Z,42.04
2019-03-29T10:47:43.573Z,41.95
2019-03-29T10:50:08.809Z,42.17
2019-03-29T10:52:38.200Z,41.05
2019-03-29T10:55:07.616Z,39.33
2019-03-29T10:57:36.951Z,38.55
2019-03-29T11:00:10.277Z,38.40
2019-03-29T11:02:39.643Z,38.56
2019-03-29T11:05:09.025Z,38.33
2019-03-29T11:07:38.446Z,37.43
2019-03-29T11:10:07.859Z,37.32
2019-03-29T11:12:37.228Z,37.18
2019-03-29T11:15:07.646Z,36.91
2019-03-29T11:17:37.026Z,36.70
2019-03-29T11:20:06.379Z,36.51
2019-03-29T11:22:35.794Z,36.37
2019-03-29T11:25:06.888Z,36.07
2019-03-29T11:27:36.314Z,35.90
2019-03-29T11:30:07.316Z,35.77
2019-03-29T11:32:36.980Z,35.94
2019-03-29T11:35:06.603Z,34.90
2019-03-29T11:37:35.979Z,34.96
2019-03-29T11:40:09.651Z,35.71
2019-03-29T11:42:39.033Z,34.91
2019-03-29T11:45:08.381Z,34.42
2019-03-29T11:47:37.721Z,34.82
2019-03-29T11:50:07.369Z,34.62
2019-03-29T11:52:36.728Z,34.95
2019-03-29T11:55:07.480Z,34.85
2019-03-29T11:57:36.837Z,34.98
2019-03-29T12:00:10.996Z,34.41
2019-03-29T12:02:40.363Z,34.99
2019-03-29T12:05:09.717Z,34.28
2019-03-29T12:07:39.095Z,34.27
2019-03-29T12:10:08.506Z,34.35
2019-03-29T12:12:37.851Z,34.41
2019-03-29T12:15:09.051Z,34.26
2019-03-29T12:17:39.170Z,33.74
2019-03-29T12:20:08.593Z,33.71
2019-03-29T12:22:37.958Z,34.47
2019-03-29T12:25:07.771Z,33.73
2019-03-29T12:27:37.148Z,33.04
2019-03-29T12:30:09.647Z,32.86
2019-03-29T12:32:39.004Z,32.80
2019-03-29T12:35:10.011Z,32.70
2019-03-29T12:37:39.614Z,32.52
2019-03-29T12:40:09.028Z,31.87
2019-03-29T12:42:38.396Z,31.94
2019-03-29T12:45:07.815Z,32.08
2019-03-29T12:47:37.177Z,31.91
2019-03-29T12:50:07.910Z,31.99
2019-03-29T12:52:37.255Z,31.96
2019-03-29T12:55:06.972Z,31.68
2019-03-29T12:57:38.968Z,32.21
2019-03-29T13:00:10.442Z,31.39
2019-03-29T13:02:39.784Z,31.49
2019-03-29T13:05:09.155Z,31.22
2019-03-29T13:07:38.569Z,31.32
2019-03-29T13:10:09.185Z,31.39
2019-03-29T13:12:38.546Z,31.06
2019-03-29T13:15:08.649Z,31.37
2019-03-29T13:17:38.567Z,30.71
2019-03-29T13:20:08.110Z,30.59
2019-03-29T13:22:37.455Z,30.72
2019-03-29T13:25:07.695Z,30.46
2019-03-29T13:27:37.220Z,30.56
2019-03-29T13:30:08.839Z,30.72
2019-03-29T13:32:38.189Z,30.56
2019-03-29T13:35:07.976Z,30.55
2019-03-29T13:37:37.338Z,29.53
2019-03-29T13:40:08.875Z,29.44
2019-03-29T13:42:38.241Z,29.21
2019-03-29T13:45:08.743Z,28.82
2019-03-29T13:47:38.439Z,28.56
2019-03-29T13:50:10.384Z,28.30
2019-03-29T13:52:39.734Z,28.27
2019-03-29T13:55:08.838Z,27.66
2019-03-29T13:57:38.219Z,27.25
2019-03-29T14:00:12.170Z,27.13
2019-03-29T14:02:41.530Z,27.33
2019-03-29T14:05:10.903Z,27.44
2019-03-29T14:07:40.322Z,27.08
2019-03-29T14:10:09.811Z,27.32
2019-03-29T14:12:39.929Z,27.56
2019-03-29T14:15:10.506Z,26.53
2019-03-29T14:17:39.934Z,26.26
2019-03-29T14:20:10.598Z,25.97
2019-03-29T14:22:39.944Z,25.29
2019-03-29T14:25:09.290Z,25.21
2019-03-29T14:27:38.699Z,24.51
2019-03-29T14:30:08.997Z,24.88
2019-03-29T14:32:38.382Z,24.58
2019-03-29T14:35:08.772Z,24.16
2019-03-29T14:37:38.128Z,24.10
2019-03-29T14:40:08.599Z,23.77
2019-03-29T14:42:37.943Z,23.58
2019-03-29T14:45:07.975Z,23.83
2019-03-29T14:47:43.001Z,24.56
2019-03-29T14:50:08.986Z,24.61
2019-03-29T14:52:38.335Z,24.44
2019-03-29T14:55:08.029Z,23.99
2019-03-29T14:57:37.412Z,23.17
2019-03-29T15:00:09.912Z,23.25
2019-03-29T15:02:39.280Z,23.00
2019-03-29T15:05:09.179Z,22.83
2019-03-29T15:07:38.858Z,22.41
2019-03-29T15:10:11.573Z,22.34
2019-03-29T15:12:40.917Z,22.16
2019-03-29T15:15:10.253Z,22.52
2019-03-29T15:17:39.622Z,21.94
2019-03-29T15:20:08.948Z,21.72
2019-03-29T15:22:38.344Z,21.16
2019-03-29T15:25:07.671Z,21.02
2019-03-29T15:27:37.026Z,21.32
2019-03-29T15:30:08.036Z,21.76
2019-03-29T15:32:56.802Z,22.01
2019-03-29T15:35:26.186Z,21.49
2019-03-29T15:37:55.535Z,21.76
2019-03-29T15:40:24.877Z,21.48
2019-03-29T15:42:54.243Z,21.59
2019-03-29T15:45:23.586Z,22.64
2019-03-29T15:47:52.955Z,22.63
2019-03-29T15:50:22.301Z,22.84
2019-03-29T15:52:51.661Z,22.46
2019-03-29T15:55:21.034Z,22.55
2019-03-29T15:57:50.386Z,22.79
2019-03-29T16:00:19.749Z,22.67
2019-03-29T16:02:49.110Z,22.65
2019-03-29T16:05:18.453Z,22.71
2019-03-29T16:07:47.890Z,22.76
2019-03-29T16:10:17.398Z,22.83
2019-03-29T16:12:46.783Z,22.88
2019-03-29T16:15:16.393Z,23.04
2019-03-29T16:17:46.101Z,23.15
2019-03-29T16:20:15.471Z,22.88
2019-03-29T16:22:44.793Z,22.88
2019-03-29T16:25:14.178Z,22.67
2019-03-29T16:27:43.533Z,23.16
2019-03-29T16:30:13.170Z,23.30
2019-03-29T16:32:42.512Z,23.43
2019-03-29T16:35:11.860Z,23.85
2019-03-29T16:37:41.226Z,24.79
2019-03-29T16:40:10.594Z,25.48
2019-03-29T16:42:39.929Z,25.91
2019-03-29T16:45:09.305Z,26.29
2019-03-29T16:47:38.634Z,26.82
2019-03-29T16:50:08.346Z,27.48
2019-03-29T16:52:37.692Z,27.86
2019-03-29T16:55:13.778Z,28.40
2019-03-29T16:57:38.946Z,28.96
2019-03-29T17:00:12.424Z,29.17
2019-03-29T17:02:41.598Z,29.49
2019-03-29T17:05:10.935Z,29.89
2019-03-29T17:07:40.298Z,30.32
2019-03-29T17:10:09.646Z,30.95
2019-03-29T17:12:38.972Z,31.17
2019-03-29T17:15:08.367Z,31.56
2019-03-29T17:17:37.710Z,32.00
2019-03-29T17:20:10.043Z,32.37
2019-03-29T17:22:42.953Z,32.79
2019-03-29T17:25:12.094Z,33.06
2019-03-29T17:27:41.470Z,33.21
2019-03-29T17:30:12.221Z,34.05
2019-03-29T17:32:41.556Z,34.72
2019-03-29T17:35:10.916Z,35.23
2019-03-29T17:37:40.307Z,35.73
2019-03-29T17:40:09.939Z,36.10
2019-03-29T17:42:39.302Z,36.41
2019-03-29T17:45:08.628Z,36.62
2019-03-29T17:47:38.061Z,37.25
2019-03-29T17:50:07.658Z,37.51
2019-03-29T17:52:37.016Z,37.81
2019-03-29T17:55:07.596Z,37.97
2019-03-29T17:57:36.938Z,38.42
2019-03-29T18:00:08.609Z,38.74
2019-03-29T18:02:37.944Z,39.09
2019-03-29T18:05:08.186Z,39.25
2019-03-29T18:07:37.526Z,40.01
2019-03-29T18:10:09.063Z,40.34
2019-03-29T18:12:38.428Z,40.74
2019-03-29T18:15:08.586Z,41.10
2019-03-29T18:17:37.935Z,41.54
2019-03-29T18:20:08.593Z,41.80
2019-03-29T18:22:37.936Z,41.86
2019-03-29T18:25:08.015Z,41.91
2019-03-29T18:27:37.354Z,42.29
2019-03-29T18:30:08.998Z,42.56
2019-03-29T18:32:38.722Z,42.81
2019-03-29T18:35:08.295Z,43.11
2019-03-29T18:37:38.467Z,43.42
2019-03-29T18:40:09.431Z,43.56
2019-03-29T18:42:38.780Z,43.59
2019-03-29T18:45:08.323Z,43.94
2019-03-29T18:47:37.649Z,44.05
2019-03-29T18:50:07.304Z,44.19
2019-03-29T18:52:36.657Z,44.56
2019-03-29T18:55:07.073Z,44.72
2019-03-29T18:57:36.429Z,44.66
2019-03-29T19:00:07.679Z,44.76
2019-03-29T19:02:38.264Z,45.13
2019-03-29T19:05:07.675Z,45.37
2019-03-29T19:07:37.031Z,45.65
2019-03-29T19:10:07.722Z,45.68
2019-03-29T19:12:37.088Z,45.90
2019-03-29T19:15:07.204Z,45.83
2019-03-29T19:17:37.035Z,46.29
2019-03-29T19:20:10.091Z,46.35
2019-03-29T19:22:38.052Z,46.50
2019-03-29T19:25:07.805Z,47.36
2019-03-29T19:27:37.179Z,46.77
2019-03-29T19:30:11.104Z,46.75
2019-03-29T19:32:40.438Z,46.82
2019-03-29T19:35:09.800Z,46.91
2019-03-29T19:37:39.211Z,47.43
2019-03-29T19:40:08.604Z,47.45
2019-03-29T19:42:37.952Z,47.64
2019-03-29T19:45:09.707Z,47.70
2019-03-29T19:47:39.247Z,47.79
2019-03-29T19:50:08.595Z,47.79
2019-03-29T19:52:37.938Z,47.96
2019-03-29T19:55:07.300Z,48.15
2019-03-29T19:57:36.744Z,48.06
2019-03-29T20:00:14.108Z,48.26
2019-03-29T20:02:43.667Z,48.52
2019-03-29T20:05:27.577Z,48.48
2019-03-29T20:07:57.329Z,48.85
2019-03-29T20:10:26.660Z,49.30
2019-03-29T20:12:56.029Z,49.62
2019-03-29T20:15:25.372Z,49.59
2019-03-29T20:17:54.754Z,50.04
2019-03-29T20:20:25.711Z,50.08
2019-03-29T20:22:55.889Z,50.44
2019-03-29T20:25:26.034Z,50.32
2019-03-29T20:27:58.454Z,50.70
2019-03-29T20:30:26.700Z,50.48
2019-03-29T20:32:56.042Z,50.26
2019-03-29T20:35:25.393Z,50.44
2019-03-29T20:37:54.759Z,50.27
2019-03-29T20:40:24.396Z,50.40
2019-03-29T20:42:53.792Z,50.20
2019-03-29T20:45:23.153Z,50.15
2019-03-29T20:47:52.499Z,50.20
2019-03-29T20:50:21.923Z,50.63
2019-03-29T20:52:51.278Z,50.84
2019-03-29T20:55:20.661Z,50.84
2019-03-29T20:57:50.005Z,50.73
2019-03-29T21:00:19.501Z,51.41
2019-03-29T21:02:48.851Z,51.67
2019-03-29T21:05:18.204Z,51.61
2019-03-29T21:07:47.574Z,51.54
2019-03-29T21:10:18.570Z,51.55
2019-03-29T21:12:47.949Z,52.19
2019-03-29T21:15:17.536Z,52.20
2019-03-29T21:17:56.753Z,52.47
2019-03-29T21:20:18.096Z,52.32
2019-03-29T21:22:47.447Z,52.72
2019-03-29T21:25:16.857Z,52.93
2019-03-29T21:27:46.222Z,52.92
2019-03-29T21:30:15.643Z,52.72
2019-03-29T21:32:45.110Z,52.81
2019-03-29T21:35:14.462Z,52.51
2019-03-29T21:37:43.810Z,52.63
2019-03-29T21:40:13.168Z,52.99
2019-03-29T21:42:42.517Z,53.20
2019-03-29T21:45:12.422Z,53.08
2019-03-29T21:47:41.758Z,53.25
2019-03-29T21:50:11.107Z,53.50
2019-03-29T21:52:40.483Z,53.42
2019-03-29T21:55:09.832Z,53.71
2019-03-29T21:57:39.198Z,53.67
2019-03-29T22:00:12.724Z,54.06
2019-03-29T22:02:42.066Z,54.15
2019-03-29T22:05:11.443Z,54.27
2019-03-29T22:07:40.770Z,54.26
2019-03-29T22:10:11.085Z,54.34
2019-03-29T22:12:43.077Z,54.48
2019-03-29T22:15:11.513Z,54.72
2019-03-29T22:17:40.871Z,54.60
2019-03-29T22:20:10.279Z,54.63
2019-03-29T22:22:39.671Z,55.05
2019-03-29T22:25:12.195Z,54.91
2019-03-29T22:27:41.536Z,54.81
2019-03-29T22:30:11.219Z,54.67
2019-03-29T22:32:40.558Z,55.02
2019-03-29T22:35:10.040Z,55.16
2019-03-29T22:37:39.412Z,55.12
2019-03-29T22:40:08.969Z,55.04
2019-03-29T22:42:38.334Z,55.59
2019-03-29T22:45:09.383Z,55.90
2019-03-29T22:47:38.800Z,56.16
2019-03-29T22:50:08.209Z,56.09
2019-03-29T22:52:37.578Z,56.27
2019-03-29T22:55:07.767Z,56.42
2019-03-29T22:57:37.124Z,56.04
2019-03-29T23:00:14.150Z,56.04
2019-03-29T23:02:43.486Z,56.28
2019-03-29T23:05:12.857Z,56.32
2019-03-29T23:07:42.219Z,56.25
2019-03-29T23:10:11.574Z,56.73
2019-03-29T23:12:40.946Z,56.30
2019-03-29T23:15:10.293Z,56.49
2019-03-29T23:17:39.667Z,56.80
2019-03-29T23:20:09.014Z,57.15
2019-03-29T23:22:38.361Z,57.58
2019-03-29T23:25:07.731Z,56.93
2019-03-29T23:27:37.086Z,56.89
2019-03-29T23:30:07.187Z,57.03
2019-03-29T23:32:36.527Z,57.36
2019-03-29T23:35:07.667Z,57.67
2019-03-29T23:37:37.084Z,58.19
2019-03-29T23:40:06.904Z,58.00
2019-03-29T23:42:36.341Z,58.18
2019-03-29T23:45:08.651Z,58.19
2019-03-29T23:47:37.986Z,58.05
2019-03-29T23:50:08.188Z,58.29
2019-03-29T23:52:37.525Z,58.59
2019-03-29T23:55:06.916Z,58.75
2019-03-29T23:57:36.246Z,59.05
